createdAt,value
2018-11-22T12:17:55.736Z,38.27
2018-11-22T12:27:56.971Z,41.00
2018-11-22T12:37:58.276Z,46.63
2018-11-22T12:47:59.628Z,43.33
2018-11-22T12:58:00.905Z,37.67
2018-11-22T13:08:02.994Z,39.80
2018-11-22T13:18:04.607Z,39.80
2018-11-22T14:28:48.806Z,47.77
2018-11-22T15:19:21.043Z,49.00
2018-11-22T15:29:22.453Z,48.83
2018-11-22T15:39:23.712Z,46.70
2018-11-22T15:49:25.013Z,52.53
2018-11-22T15:59:27.352Z,55.80
2018-11-22T16:09:28.611Z,63.33
2018-11-22T17:00:01.034Z,60.03
2018-11-22T17:10:04.358Z,67.97
2018-11-22T17:20:05.619Z,72.73
2018-11-22T17:30:11.246Z,70.63
2018-11-22T18:10:30.057Z,60.83
2018-11-22T18:20:31.352Z,57.10
2018-11-22T18:30:32.600Z,50.10
2018-11-22T18:40:33.920Z,52.00
2018-11-22T18:50:35.192Z,51.70
2018-11-22T19:00:37.227Z,48.33
2018-11-22T19:10:38.614Z,60.97
2018-11-22T19:20:39.885Z,49.37
2018-11-22T19:30:43.033Z,51.60
2018-11-22T19:40:45.051Z,46.83
2018-11-22T19:50:46.540Z,49.47
2018-11-22T20:00:47.785Z,40.97
2018-11-22T20:10:49.047Z,48.97
2018-11-22T20:20:50.293Z,52.63
2018-11-22T20:30:51.548Z,50.63
2018-11-22T20:40:57.584Z,46.07
2018-11-22T20:50:58.856Z,51.93
2018-11-22T21:01:00.336Z,50.87
2018-11-22T21:11:01.616Z,52.47
2018-11-22T21:21:03.658Z,55.80
2018-11-22T21:31:04.923Z,54.07
2018-11-22T21:41:06.911Z,71.37
2018-11-22T21:51:08.140Z,63.83
2018-11-22T22:01:09.381Z,57.27
2018-11-22T22:11:10.671Z,58.87
2018-11-22T22:21:11.927Z,61.07
2018-11-22T22:31:13.960Z,76.60
2018-11-22T22:41:15.240Z,79.40
2018-11-22T22:51:17.268Z,91.00
2018-11-22T23:01:18.543Z,84.07
2018-11-22T23:11:20.548Z,79.30
2018-11-22T23:21:22.555Z,68.87
2018-11-22T23:31:23.795Z,58.83
2018-11-22T23:41:25.034Z,64.83
